createdAt,value
2023-04-28T00:01:41.920Z,82.90
2023-04-28T00:04:09.412Z,83.10
2023-04-28T00:06:37.183Z,83.20
2023-04-28T00:09:04.136Z,83.50
2023-04-28T00:11:30.928Z,83.40
2023-04-28T00:13:57.708Z,83.60
2023-04-28T00:16:24.596Z,83.80
2023-04-28T00:18:51.909Z,83.80
2023-04-28T00:21:18.864Z,83.80
2023-04-28T00:23:45.797Z,84.00
2023-04-28T00:26:12.637Z,84.10
2023-04-28T00:28:39.467Z,84.20
2023-04-28T00:31:14.731Z,84.30
2023-04-28T00:33:43.013Z,84.30
2023-04-28T00:36:11.163Z,84.20
2023-04-28T00:38:38.416Z,84.40
2023-04-28T00:41:05.735Z,84.40
2023-04-28T00:43:32.610Z,84.50
2023-04-28T00:45:59.805Z,84.30
2023-04-28T00:48:27.610Z,84.30
2023-04-28T00:50:55.180Z,84.20
2023-04-28T00:53:22.117Z,84.30
2023-04-28T00:55:51.444Z,84.50
2023-04-28T00:58:18.862Z,84.30
2023-04-28T01:00:45.662Z,84.40
2023-04-28T01:03:12.667Z,84.40
2023-04-28T01:05:39.965Z,84.50
2023-04-28T01:08:07.203Z,84.60
2023-04-28T01:10:34.017Z,84.80
2023-04-28T01:13:00.755Z,85.80
2023-04-28T01:15:28.406Z,85.20
2023-04-28T01:17:55.795Z,85.30
2023-04-28T01:20:22.646Z,85.30
2023-04-28T01:22:49.604Z,85.50
2023-04-28T01:25:16.409Z,85.70
2023-04-28T01:27:43.150Z,85.80
2023-04-28T01:30:25.018Z,85.80
2023-04-28T01:32:51.882Z,85.80
2023-04-28T01:35:18.706Z,85.90
2023-04-28T01:37:45.915Z,86.20
2023-04-28T01:40:13.301Z,86.20
2023-04-28T01:42:40.156Z,86.40
2023-04-28T01:45:07.588Z,86.40
2023-04-28T01:47:34.454Z,86.50
2023-04-28T01:50:01.934Z,86.70
2023-04-28T01:52:28.734Z,86.70
2023-04-28T01:54:55.622Z,86.90
2023-04-28T01:57:22.739Z,87.00
2023-04-28T01:59:49.740Z,87.00
2023-04-28T02:02:16.551Z,87.00
2023-04-28T02:04:43.414Z,87.20
2023-04-28T02:07:10.456Z,88.10
2023-04-28T02:09:37.273Z,87.50
2023-04-28T02:12:04.499Z,87.50
2023-04-28T02:14:32.324Z,87.70
2023-04-28T02:16:59.675Z,87.60
2023-04-28T02:19:26.702Z,87.80
2023-04-28T02:21:53.916Z,88.10
2023-04-28T02:24:20.733Z,88.20
2023-04-28T02:26:47.698Z,88.30
2023-04-28T02:29:14.638Z,88.50
2023-04-28T02:31:41.474Z,88.70
2023-04-28T02:34:08.420Z,88.90
2023-04-28T02:36:35.252Z,89.00
2023-04-28T02:39:02.116Z,89.00
2023-04-28T02:41:31.091Z,89.20
2023-04-28T02:43:58.010Z,89.20
2023-04-28T02:46:24.796Z,89.30
2023-04-28T02:48:51.566Z,89.50
2023-04-28T02:51:18.417Z,89.30
2023-04-28T02:53:45.254Z,89.40
2023-04-28T02:56:12.107Z,89.50
2023-04-28T02:58:38.880Z,89.40
2023-04-28T03:01:05.892Z,89.30
2023-04-28T03:03:33.564Z,89.40
2023-04-28T03:06:00.572Z,89.30
2023-04-28T03:08:27.370Z,89.20
2023-04-28T03:10:54.232Z,89.10
2023-04-28T03:13:21.028Z,88.90
2023-04-28T03:15:47.947Z,89.20
2023-04-28T03:18:14.699Z,89.00
2023-04-28T03:20:41.657Z,89.00
2023-04-28T03:23:08.446Z,88.80
2023-04-28T03:25:35.335Z,88.80
2023-04-28T03:28:02.184Z,88.70
2023-04-28T03:30:28.973Z,88.70
2023-04-28T03:32:55.975Z,88.80
2023-04-28T03:35:22.860Z,88.90
2023-04-28T03:37:49.844Z,88.80
2023-04-28T03:40:16.854Z,88.50
2023-04-28T03:42:43.616Z,89.00
2023-04-28T03:45:11.138Z,89.30
2023-04-28T03:47:38.143Z,89.50
2023-04-28T03:50:05.604Z,89.70
2023-04-28T03:52:32.444Z,89.80
2023-04-28T03:54:59.705Z,89.60
2023-04-28T03:57:26.443Z,89.90
2023-04-28T03:59:53.225Z,90.20
2023-04-28T04:02:20.050Z,90.20
2023-04-28T04:04:47.323Z,90.50
2023-04-28T04:07:14.354Z,90.80
2023-04-28T04:09:41.725Z,91.10
2023-04-28T04:12:08.529Z,91.10
2023-04-28T04:14:35.280Z,90.80
2023-04-28T04:17:02.035Z,90.90
2023-04-28T04:19:28.820Z,91.00
2023-04-28T04:21:55.730Z,91.00
2023-04-28T04:24:22.634Z,91.40
2023-04-28T04:26:49.408Z,91.30
2023-04-28T04:29:16.201Z,91.30
2023-04-28T04:31:45.286Z,91.50
2023-04-28T04:34:12.168Z,91.70
2023-04-28T04:36:39.253Z,92.40
2023-04-28T04:39:06.105Z,92.40
2023-04-28T04:41:32.938Z,92.90
2023-04-28T04:44:00.296Z,92.70
2023-04-28T04:46:27.275Z,93.20
2023-04-28T04:48:54.116Z,93.50
2023-04-28T04:51:20.907Z,93.60
2023-04-28T04:53:47.669Z,94.00
2023-04-28T04:56:14.648Z,93.80
2023-04-28T04:58:44.517Z,94.00
2023-04-28T05:01:11.373Z,94.40
2023-04-28T05:03:38.310Z,94.50
2023-04-28T05:06:05.563Z,94.50
2023-04-28T05:08:32.358Z,94.00
2023-04-28T05:10:59.130Z,94.10
2023-04-28T05:13:26.028Z,94.50
2023-04-28T05:15:52.859Z,94.90
2023-04-28T05:18:19.630Z,94.60
2023-04-28T05:20:46.481Z,95.20
2023-04-28T05:23:13.695Z,95.20
2023-04-28T05:25:40.517Z,95.20
2023-04-28T05:28:10.595Z,95.70
2023-04-28T05:30:37.522Z,95.90
2023-04-28T05:33:04.537Z,95.80
2023-04-28T05:35:31.730Z,96.00
2023-04-28T05:37:59.289Z,96.30
2023-04-28T05:40:27.385Z,96.30
2023-04-28T05:42:54.184Z,96.70
2023-04-28T05:45:21.492Z,96.50
2023-04-28T05:47:48.393Z,97.00
2023-04-28T05:50:15.363Z,97.40
2023-04-28T05:52:42.199Z,97.20
2023-04-28T05:55:09.741Z,97.20
2023-04-28T05:57:45.771Z,97.10
2023-04-28T06:00:19.941Z,97.20
2023-04-28T06:02:46.889Z,98.00
2023-04-28T06:05:13.943Z,98.10
2023-04-28T06:07:40.962Z,97.80
2023-04-28T06:10:09.811Z,97.60
2023-04-28T06:12:37.400Z,98.00
2023-04-28T06:15:06.526Z,97.50
2023-04-28T06:17:34.168Z,97.30
2023-04-28T06:20:01.203Z,97.70
2023-04-28T06:22:28.070Z,98.00
2023-04-28T06:24:54.858Z,98.90
2023-04-28T06:27:21.718Z,98.90
2023-04-28T06:29:48.501Z,99.50
2023-04-28T06:32:15.472Z,99.90
2023-04-28T06:34:42.666Z,99.90
2023-04-28T06:37:09.512Z,99.90
2023-04-28T06:39:36.535Z,99.90
2023-04-28T06:42:04.134Z,99.90
2023-04-28T06:44:30.974Z,99.90
2023-04-28T06:46:57.851Z,99.90
2023-04-28T06:49:24.725Z,99.90
2023-04-28T06:51:51.676Z,99.90
2023-04-28T06:54:18.861Z,99.90
2023-04-28T06:56:46.064Z,99.90
2023-04-28T06:59:12.804Z,99.90
2023-04-28T07:01:39.717Z,99.90
2023-04-28T07:04:06.753Z,99.90
2023-04-28T07:06:33.681Z,99.90
2023-04-28T07:09:00.605Z,99.90
2023-04-28T07:11:27.482Z,99.90
2023-04-28T07:13:54.253Z,99.90
2023-04-28T07:16:22.288Z,99.90
2023-04-28T07:18:49.161Z,99.90
2023-04-28T07:21:16.297Z,99.90
2023-04-28T07:23:43.301Z,99.90
2023-04-28T07:26:10.122Z,99.90
2023-04-28T07:28:37.310Z,99.90
2023-04-28T07:31:04.197Z,99.90
2023-04-28T07:33:31.026Z,99.90
2023-04-28T07:35:57.921Z,99.90
2023-04-28T07:38:24.883Z,99.90
2023-04-28T07:43:18.535Z,99.90
2023-04-28T07:45:46.675Z,99.90
2023-04-28T07:48:13.572Z,99.90
2023-04-28T07:50:40.435Z,99.90
2023-04-28T07:53:07.251Z,99.90
2023-04-28T07:55:34.903Z,99.90
2023-04-28T07:58:01.779Z,99.90
2023-04-28T08:00:28.750Z,99.90
2023-04-28T08:02:57.743Z,99.90
2023-04-28T08:05:24.845Z,99.90
2023-04-28T08:07:51.820Z,99.90
2023-04-28T08:10:18.992Z,99.90
2023-04-28T08:12:45.781Z,99.90
2023-04-28T08:15:13.104Z,99.90
2023-04-28T08:17:40.021Z,99.90
2023-04-28T08:20:07.805Z,99.90
2023-04-28T08:22:34.825Z,99.90
2023-04-28T08:25:01.749Z,99.90
2023-04-28T08:27:28.641Z,99.90
2023-04-28T08:29:55.697Z,99.90
2023-04-28T08:32:22.661Z,99.90
2023-04-28T08:34:50.082Z,99.90
2023-04-28T08:37:17.268Z,99.90
2023-04-28T08:39:44.244Z,99.90
2023-04-28T08:42:11.221Z,99.90
2023-04-28T08:44:40.353Z,99.90
2023-04-28T08:47:14.652Z,99.90
2023-04-28T08:49:42.026Z,99.90
2023-04-28T08:52:17.095Z,99.90
2023-04-28T08:54:45.597Z,99.90
2023-04-28T08:57:13.185Z,99.90
2023-04-28T08:59:41.618Z,99.90
2023-04-28T09:02:09.612Z,99.90
2023-04-28T09:04:37.079Z,99.90
2023-04-28T09:07:04.085Z,99.90
2023-04-28T09:09:34.187Z,99.90
2023-04-28T09:12:04.708Z,99.90
2023-04-28T09:14:34.837Z,99.90
2023-04-28T09:17:13.850Z,99.90
2023-04-28T09:19:43.196Z,99.90
2023-04-28T09:22:23.996Z,99.90
2023-04-28T09:24:55.151Z,99.90
2023-04-28T09:27:29.314Z,99.90
2023-04-28T09:29:56.505Z,99.90
2023-04-28T09:32:24.990Z,99.90
2023-04-28T09:34:56.705Z,99.90
2023-04-28T09:37:27.368Z,99.90
2023-04-28T09:39:55.297Z,99.90
2023-04-28T09:42:40.739Z,99.90
2023-04-28T09:45:13.528Z,99.90
2023-04-28T09:47:47.007Z,99.90
2023-04-28T09:50:17.656Z,99.90
2023-04-28T09:52:57.143Z,99.90
2023-04-28T09:55:25.026Z,99.90
2023-04-28T09:57:55.199Z,99.90
2023-04-28T10:00:23.815Z,99.90
2023-04-28T10:02:52.074Z,99.90
2023-04-28T10:05:19.776Z,99.90
2023-04-28T10:07:46.994Z,99.90
2023-04-28T10:10:14.652Z,99.90
2023-04-28T10:12:42.041Z,99.90
2023-04-28T10:15:10.688Z,99.90
2023-04-28T10:17:38.938Z,99.90
2023-04-28T10:20:08.698Z,99.90
2023-04-28T10:22:47.835Z,99.90
2023-04-28T10:25:31.997Z,99.90
2023-04-28T10:28:00.627Z,99.90
2023-04-28T10:30:31.269Z,99.90
2023-04-28T10:33:13.564Z,99.90
2023-04-28T10:35:46.714Z,99.90
2023-04-28T10:38:17.982Z,99.90
2023-04-28T10:40:50.392Z,99.90
2023-04-28T10:43:29.626Z,99.90
2023-04-28T10:46:01.268Z,99.90
2023-04-28T10:48:34.797Z,99.90
2023-04-28T10:51:04.784Z,99.90
2023-04-28T10:53:47.503Z,99.90
2023-04-28T10:56:25.409Z,99.90
2023-04-28T10:58:57.198Z,99.90
2023-04-28T11:01:34.509Z,99.90
2023-04-28T11:04:08.378Z,99.90
2023-04-28T11:06:41.452Z,99.90
2023-04-28T11:09:20.228Z,99.90
2023-04-28T11:12:06.747Z,99.90
2023-04-28T11:14:36.283Z,99.90
2023-04-28T11:17:09.000Z,99.90
2023-04-28T11:19:51.339Z,99.90
2023-04-28T11:22:20.510Z,99.90
2023-04-28T11:25:02.435Z,99.90
2023-04-28T11:27:34.473Z,99.90
2023-04-28T11:30:01.727Z,99.90
2023-04-28T11:32:34.894Z,99.90
2023-04-28T11:35:03.266Z,99.90
2023-04-28T11:37:30.216Z,99.90
2023-04-28T11:39:57.444Z,99.90
2023-04-28T11:42:25.927Z,99.90
2023-04-28T11:44:54.575Z,99.90
2023-04-28T11:47:34.968Z,99.90
2023-04-28T11:50:03.359Z,99.90
2023-04-28T11:52:30.429Z,99.90
2023-04-28T11:55:02.068Z,99.90
2023-04-28T11:57:29.109Z,99.90
2023-04-28T12:00:22.149Z,99.90
2023-04-28T12:02:49.452Z,99.90
2023-04-28T12:05:16.739Z,99.90
2023-04-28T12:07:45.209Z,99.90
2023-04-28T12:10:16.895Z,99.90
2023-04-28T12:12:51.786Z,99.90
2023-04-28T12:15:22.398Z,99.90
2023-04-28T12:17:51.123Z,99.90
2023-04-28T12:20:38.971Z,99.90
2023-04-28T12:23:06.794Z,99.90
2023-04-28T12:25:35.381Z,99.90
2023-04-28T12:28:08.132Z,99.90
2023-04-28T12:30:43.892Z,99.90
2023-04-28T12:33:27.425Z,99.90
2023-04-28T12:35:56.241Z,99.90
2023-04-28T12:38:27.339Z,99.90
2023-04-28T12:40:54.956Z,99.90
2023-04-28T12:43:23.853Z,99.90
2023-04-28T12:45:53.627Z,99.90
2023-04-28T12:48:21.437Z,99.90
2023-04-28T12:50:48.228Z,99.90
2023-04-28T12:53:15.041Z,99.90
2023-04-28T12:55:42.141Z,99.90
2023-04-28T12:58:08.935Z,99.90
2023-04-28T13:00:35.890Z,99.90
2023-04-28T13:03:02.892Z,99.90
2023-04-28T13:05:31.133Z,99.90
2023-04-28T13:07:57.988Z,99.90
2023-04-28T13:10:26.550Z,99.90
2023-04-28T13:12:53.335Z,99.90
2023-04-28T13:15:20.382Z,99.90
2023-04-28T13:17:48.727Z,99.90
2023-04-28T13:20:15.776Z,99.90
2023-04-28T13:22:42.569Z,99.90
2023-04-28T13:25:10.064Z,99.90
2023-04-28T13:27:37.855Z,99.90
2023-04-28T13:30:05.873Z,99.90
2023-04-28T13:32:33.511Z,99.90
2023-04-28T13:35:00.597Z,99.90
2023-04-28T13:37:27.398Z,99.90
2023-04-28T13:39:54.198Z,99.90
2023-04-28T13:42:21.495Z,99.90
2023-04-28T13:44:49.240Z,99.90
2023-04-28T13:47:16.360Z,99.90
2023-04-28T13:49:43.573Z,99.90
2023-04-28T13:52:10.476Z,99.90
2023-04-28T13:54:37.300Z,99.90
2023-04-28T13:57:04.169Z,99.90
2023-04-28T13:59:31.243Z,99.90
2023-04-28T14:01:58.546Z,99.90
2023-04-28T14:04:25.577Z,99.90
2023-04-28T14:06:53.072Z,99.90
2023-04-28T14:09:19.913Z,99.90
2023-04-28T14:11:46.826Z,99.90
2023-04-28T14:14:13.671Z,99.90
2023-04-28T14:16:40.579Z,99.90
2023-04-28T14:19:07.423Z,99.90
2023-04-28T14:21:35.186Z,99.90
2023-04-28T14:24:02.096Z,99.90
2023-04-28T14:26:28.978Z,99.90
2023-04-28T14:28:55.969Z,99.90
2023-04-28T14:31:22.827Z,99.90
2023-04-28T14:33:49.963Z,99.90
2023-04-28T14:36:16.885Z,99.90
2023-04-28T14:38:43.717Z,99.90
2023-04-28T14:41:10.607Z,99.90
2023-04-28T14:43:38.094Z,99.90
2023-04-28T14:46:05.866Z,99.90
2023-04-28T14:48:33.088Z,99.90
2023-04-28T14:50:59.921Z,99.90
2023-04-28T14:53:26.750Z,99.90
2023-04-28T14:55:56.039Z,99.90
2023-04-28T14:58:26.400Z,99.90
2023-04-28T15:00:53.260Z,99.90
2023-04-28T15:03:20.276Z,99.90
2023-04-28T15:05:47.268Z,99.90
2023-04-28T15:08:14.250Z,99.90
2023-04-28T15:10:41.409Z,99.90
2023-04-28T15:13:08.383Z,99.90
2023-04-28T15:15:35.949Z,99.90
2023-04-28T15:18:04.266Z,99.90
2023-04-28T15:20:34.700Z,99.90
2023-04-28T15:23:01.622Z,99.90
2023-04-28T15:25:28.529Z,99.90
2023-04-28T15:27:55.924Z,99.90
2023-04-28T15:30:22.772Z,99.90
2023-04-28T15:32:50.351Z,99.90
2023-04-28T15:35:17.388Z,99.90
2023-04-28T15:37:47.673Z,99.90
2023-04-28T15:40:17.580Z,99.90
2023-04-28T15:42:49.236Z,99.90
2023-04-28T15:45:18.314Z,99.90
2023-04-28T15:47:48.278Z,99.90
2023-04-28T15:50:16.488Z,99.90
2023-04-28T15:52:46.991Z,99.90
2023-04-28T15:55:18.388Z,99.90
2023-04-28T15:57:47.613Z,99.90
2023-04-28T16:00:15.958Z,99.90
2023-04-28T16:02:43.961Z,99.90
2023-04-28T16:05:11.446Z,99.90
2023-04-28T16:07:40.694Z,99.90
2023-04-28T16:10:10.814Z,99.90
2023-04-28T16:12:39.283Z,99.90
2023-04-28T16:15:08.642Z,99.90
2023-04-28T16:17:37.887Z,99.90
2023-04-28T16:20:07.228Z,99.90
2023-04-28T16:22:35.647Z,99.90
2023-04-28T16:25:04.054Z,99.90
2023-04-28T16:27:31.362Z,99.90
2023-04-28T16:29:58.561Z,99.90
2023-04-28T16:32:25.333Z,99.90
2023-04-28T16:34:52.932Z,99.90
2023-04-28T16:37:19.746Z,99.90
2023-04-28T16:39:49.011Z,99.90
2023-04-28T16:42:16.514Z,99.90
2023-04-28T16:44:44.058Z,99.90
2023-04-28T16:47:11.017Z,99.90
2023-04-28T16:49:37.787Z,99.90
2023-04-28T16:52:05.247Z,99.90
2023-04-28T16:54:33.168Z,99.90
2023-04-28T16:57:02.521Z,99.90
2023-04-28T16:59:29.785Z,99.90
2023-04-28T17:01:57.971Z,99.90
2023-04-28T17:04:26.225Z,99.90
2023-04-28T17:06:54.155Z,99.90
2023-04-28T17:09:22.359Z,99.90
2023-04-28T17:11:50.033Z,99.90
2023-04-28T17:14:18.335Z,99.90
2023-04-28T17:16:45.160Z,99.90
2023-04-28T17:19:12.615Z,99.90
2023-04-28T17:21:39.465Z,99.90
2023-04-28T17:24:06.827Z,99.90
2023-04-28T17:26:33.694Z,99.90
2023-04-28T17:29:00.534Z,99.90
2023-04-28T17:31:29.017Z,99.90
2023-04-28T17:33:58.193Z,99.90
2023-04-28T17:36:28.504Z,99.90
2023-04-28T17:38:56.057Z,99.90
2023-04-28T17:41:23.240Z,99.90
2023-04-28T17:43:54.168Z,99.90
2023-04-28T17:46:22.136Z,99.90
2023-04-28T17:48:49.679Z,99.90
2023-04-28T17:51:16.720Z,99.90
2023-04-28T17:53:46.148Z,99.90
2023-04-28T17:56:12.994Z,99.90
2023-04-28T17:58:39.765Z,99.90
2023-04-28T18:01:08.423Z,99.90
2023-04-28T18:03:37.887Z,99.90
2023-04-28T18:06:07.500Z,99.90
2023-04-28T18:08:36.392Z,99.90
2023-04-28T18:11:03.664Z,99.90
2023-04-28T18:13:30.951Z,99.90
2023-04-28T18:15:58.054Z,99.90
2023-04-28T18:18:25.519Z,99.90
2023-04-28T18:20:58.804Z,99.90
2023-04-28T18:23:26.987Z,99.90
2023-04-28T18:25:53.928Z,99.90
2023-04-28T18:28:20.860Z,99.90
2023-04-28T18:30:47.654Z,99.90
2023-04-28T18:33:14.562Z,99.90
2023-04-28T18:35:41.433Z,99.90
2023-04-28T18:38:08.276Z,99.90
2023-04-28T18:40:39.964Z,99.90
2023-04-28T18:43:08.683Z,99.90
2023-04-28T18:45:41.033Z,99.90
2023-04-28T18:48:10.708Z,99.90
2023-04-28T18:50:37.939Z,99.90
2023-04-28T18:53:05.050Z,99.90
2023-04-28T18:55:35.144Z,99.90
2023-04-28T18:58:02.363Z,99.90
2023-04-28T19:00:29.795Z,99.90
2023-04-28T19:02:56.902Z,99.90
2023-04-28T19:05:24.070Z,99.90
2023-04-28T19:07:50.946Z,99.90
2023-04-28T19:10:18.049Z,99.90
2023-04-28T19:12:44.860Z,99.90
2023-04-28T19:15:11.908Z,99.90
2023-04-28T19:17:39.493Z,99.90
2023-04-28T19:20:07.577Z,99.90
2023-04-28T19:22:36.424Z,99.90
2023-04-28T19:25:05.295Z,99.90
2023-04-28T19:27:38.236Z,99.90
2023-04-28T19:30:08.531Z,99.90
2023-04-28T19:32:35.850Z,99.90
2023-04-28T19:35:04.220Z,99.90
2023-04-28T19:37:32.416Z,99.90
2023-04-28T19:39:59.960Z,99.90
2023-04-28T19:42:26.955Z,99.90
2023-04-28T19:44:56.706Z,99.90
2023-04-28T19:47:25.141Z,99.90
2023-04-28T19:49:52.591Z,99.90
2023-04-28T19:52:21.334Z,99.90
2023-04-28T19:54:49.659Z,99.90
2023-04-28T19:57:17.593Z,99.90
2023-04-28T19:59:49.203Z,99.90
2023-04-28T20:02:17.488Z,99.90
2023-04-28T20:04:44.949Z,99.90
2023-04-28T20:07:12.246Z,99.90
2023-04-28T20:09:39.538Z,99.90
2023-04-28T20:12:09.081Z,99.90
2023-04-28T20:14:37.553Z,99.90
2023-04-28T20:17:05.478Z,99.90
2023-04-28T20:19:32.427Z,99.90
2023-04-28T20:22:06.663Z,99.90
2023-04-28T20:24:35.176Z,99.90
2023-04-28T20:27:03.515Z,99.90
2023-04-28T20:29:34.303Z,99.90
2023-04-28T20:32:02.656Z,99.90
2023-04-28T20:34:33.208Z,99.90
2023-04-28T20:37:03.144Z,99.90
2023-04-28T20:39:29.976Z,99.90
2023-04-28T20:41:57.213Z,99.90
2023-04-28T20:44:23.986Z,99.90
2023-04-28T20:46:51.774Z,99.90
2023-04-28T20:49:18.986Z,99.90
2023-04-28T20:51:46.080Z,99.90
2023-04-28T20:54:13.847Z,99.90
2023-04-28T20:56:42.061Z,99.90
2023-04-28T20:59:08.999Z,99.90
2023-04-28T21:01:35.909Z,99.90
2023-04-28T21:04:02.780Z,99.90
2023-04-28T21:06:29.639Z,99.90
2023-04-28T21:08:56.430Z,99.90
2023-04-28T21:11:23.300Z,99.90
2023-04-28T21:13:50.396Z,99.90
2023-04-28T21:16:21.140Z,99.90
2023-04-28T21:18:49.683Z,99.90
2023-04-28T21:21:17.125Z,99.90
2023-04-28T21:23:44.214Z,99.90
2023-04-28T21:26:11.195Z,99.90
2023-04-28T21:28:39.792Z,99.90
2023-04-28T21:31:07.230Z,99.90
2023-04-28T21:33:34.236Z,99.90
2023-04-28T21:36:09.183Z,99.90
2023-04-28T21:38:39.754Z,99.90
2023-04-28T21:41:07.626Z,99.90
2023-04-28T21:43:34.879Z,99.90
2023-04-28T21:46:01.758Z,99.90
2023-04-28T21:48:28.597Z,99.90
2023-04-28T21:50:55.390Z,99.90
2023-04-28T21:53:22.653Z,99.90
2023-04-28T21:55:49.532Z,99.90
2023-04-28T21:58:16.499Z,99.90
2023-04-28T22:00:47.033Z,99.90
2023-04-28T22:03:15.388Z,99.90
2023-04-28T22:05:43.520Z,99.90
2023-04-28T22:08:10.561Z,99.90
2023-04-28T22:10:37.668Z,99.90
2023-04-28T22:13:05.490Z,99.90
2023-04-28T22:15:32.977Z,99.90
2023-04-28T22:17:59.929Z,99.90
2023-04-28T22:20:27.010Z,99.90
2023-04-28T22:22:54.196Z,99.90
2023-04-28T22:25:21.403Z,99.90
2023-04-28T22:27:48.262Z,99.90
2023-04-28T22:30:15.716Z,99.90
2023-04-28T22:32:47.123Z,99.90
2023-04-28T22:35:16.369Z,99.90
2023-04-28T22:37:43.533Z,99.90
2023-04-28T22:40:11.150Z,99.90
2023-04-28T22:42:39.678Z,99.90
2023-04-28T22:45:07.557Z,99.90
2023-04-28T22:47:35.102Z,99.90
2023-04-28T22:50:06.315Z,99.90
2023-04-28T22:52:34.333Z,99.90
2023-04-28T22:55:01.293Z,99.90
2023-04-28T22:57:28.492Z,99.90
2023-04-28T22:59:55.356Z,99.90
2023-04-28T23:02:22.986Z,99.90
2023-04-28T23:04:50.325Z,99.90
2023-04-28T23:07:17.496Z,99.90
2023-04-28T23:09:44.362Z,99.90
2023-04-28T23:12:11.232Z,99.90
2023-04-28T23:14:38.224Z,99.90
2023-04-28T23:17:05.265Z,99.90
2023-04-28T23:19:32.087Z,99.90
2023-04-28T23:21:58.902Z,99.90
2023-04-28T23:24:27.221Z,99.90
2023-04-28T23:26:54.217Z,99.90
2023-04-28T23:29:21.061Z,99.90
2023-04-28T23:31:52.395Z,99.90
2023-04-28T23:34:19.438Z,99.90
2023-04-28T23:36:46.302Z,99.90
2023-04-28T23:39:13.459Z,99.90
2023-04-28T23:41:40.964Z,99.90
2023-04-28T23:44:08.324Z,99.90
2023-04-28T23:46:35.175Z,99.90
2023-04-28T23:49:02.051Z,99.90
2023-04-28T23:51:28.872Z,99.90
2023-04-28T23:53:55.843Z,99.90
2023-04-28T23:56:22.600Z,99.90
2023-04-28T23:58:49.776Z,99.90
